sensor_id;sensor_type;location;lat;lon;timestamp;P1;durP1;ratioP1;P2;durP2;ratioP2
10059;SDS011;5069;49.306;8.636;2023-11-21T00:02:07;7.90;;;2.10;;
10059;SDS011;5069;49.306;8.636;2023-11-21T00:05:09;3.40;;;1.60;;
10059;SDS011;5069;49.306;8.636;2023-11-21T00:08:12;6.00;;;1.53;;
10059;SDS011;5069;49.306;8.636;2023-11-21T00:11:14;3.20;;;1.63;;
10059;SDS011;5069;49.306;8.636;2023-11-21T00:14:15;5.87;;;1.57;;
10059;SDS011;5069;49.306;8.636;2023-11-21T00:17:17;9.70;;;1.93;;
10059;SDS011;5069;49.306;8.636;2023-11-21T00:20:18;6.67;;;1.80;;
10059;SDS011;5069;49.306;8.636;2023-11-21T00:23:20;4.67;;;1.73;;
10059;SDS011;5069;49.306;8.636;2023-11-21T00:26:21;5.47;;;1.80;;
10059;SDS011;5069;49.306;8.636;2023-11-21T00:29:32;6.80;;;1.83;;
10059;SDS011;5069;49.306;8.636;2023-11-21T00:32:35;4.87;;;1.70;;
10059;SDS011;5069;49.306;8.636;2023-11-21T00:35:38;9.13;;;1.60;;
10059;SDS011;5069;49.306;8.636;2023-11-21T00:38:39;5.63;;;1.70;;
10059;SDS011;5069;49.306;8.636;2023-11-21T00:41:41;4.93;;;1.73;;
10059;SDS011;5069;49.306;8.636;2023-11-21T00:44:43;7.10;;;1.80;;
10059;SDS011;5069;49.306;8.636;2023-11-21T00:47:44;3.97;;;1.80;;
10059;SDS011;5069;49.306;8.636;2023-11-21T00:50:46;9.47;;;1.70;;
10059;SDS011;5069;49.306;8.636;2023-11-21T00:53:47;5.60;;;1.87;;
10059;SDS011;5069;49.306;8.636;2023-11-21T00:56:49;5.47;;;1.60;;
10059;SDS011;5069;49.306;8.636;2023-11-21T00:59:50;6.07;;;1.90;;
10059;SDS011;5069;49.306;8.636;2023-11-21T01:02:52;7.87;;;1.83;;
10059;SDS011;5069;49.306;8.636;2023-11-21T01:05:53;5.73;;;1.63;;
10059;SDS011;5069;49.306;8.636;2023-11-21T01:08:55;6.30;;;1.70;;
10059;SDS011;5069;49.306;8.636;2023-11-21T01:11:56;6.97;;;1.90;;
10059;SDS011;5069;49.306;8.636;2023-11-21T01:14:58;6.50;;;2.07;;
10059;SDS011;5069;49.306;8.636;2023-11-21T01:18:01;4.77;;;2.07;;
10059;SDS011;5069;49.306;8.636;2023-11-21T01:21:04;5.57;;;1.77;;
10059;SDS011;5069;49.306;8.636;2023-11-21T01:24:06;5.03;;;2.00;;
10059;SDS011;5069;49.306;8.636;2023-11-21T01:27:08;5.90;;;1.83;;
10059;SDS011;5069;49.306;8.636;2023-11-21T01:30:10;5.67;;;1.83;;
10059;SDS011;5069;49.306;8.636;2023-11-21T01:33:12;4.20;;;1.90;;
10059;SDS011;5069;49.306;8.636;2023-11-21T01:36:14;3.50;;;1.50;;
10059;SDS011;5069;49.306;8.636;2023-11-21T01:39:16;6.57;;;1.57;;
10059;SDS011;5069;49.306;8.636;2023-11-21T01:42:24;4.77;;;2.10;;
10059;SDS011;5069;49.306;8.636;2023-11-21T01:45:26;4.77;;;1.63;;
10059;SDS011;5069;49.306;8.636;2023-11-21T01:48:28;4.67;;;1.60;;
10059;SDS011;5069;49.306;8.636;2023-11-21T01:51:30;4.23;;;1.40;;
10059;SDS011;5069;49.306;8.636;2023-11-21T01:54:32;4.47;;;1.67;;
10059;SDS011;5069;49.306;8.636;2023-11-21T01:57:36;3.17;;;1.37;;
10059;SDS011;5069;49.306;8.636;2023-11-21T02:00:40;4.90;;;1.80;;
10059;SDS011;5069;49.306;8.636;2023-11-21T02:03:42;3.77;;;1.60;;
10059;SDS011;5069;49.306;8.636;2023-11-21T02:06:44;3.80;;;1.40;;
10059;SDS011;5069;49.306;8.636;2023-11-21T02:09:45;3.33;;;1.63;;
10059;SDS011;5069;49.306;8.636;2023-11-21T02:12:47;4.77;;;1.87;;
10059;SDS011;5069;49.306;8.636;2023-11-21T02:15:49;4.10;;;1.43;;
10059;SDS011;5069;49.306;8.636;2023-11-21T02:18:53;3.10;;;1.20;;
10059;SDS011;5069;49.306;8.636;2023-11-21T02:21:59;5.17;;;1.47;;
10059;SDS011;5069;49.306;8.636;2023-11-21T02:25:04;4.70;;;1.37;;
10059;SDS011;5069;49.306;8.636;2023-11-21T02:28:07;5.00;;;1.30;;
10059;SDS011;5069;49.306;8.636;2023-11-21T02:31:09;2.90;;;1.10;;
10059;SDS011;5069;49.306;8.636;2023-11-21T02:34:11;4.47;;;1.50;;
10059;SDS011;5069;49.306;8.636;2023-11-21T02:37:14;2.23;;;0.90;;
10059;SDS011;5069;49.306;8.636;2023-11-21T02:40:17;2.70;;;1.47;;
10059;SDS011;5069;49.306;8.636;2023-11-21T02:43:19;2.87;;;1.10;;
10059;SDS011;5069;49.306;8.636;2023-11-21T02:46:21;3.00;;;1.40;;
10059;SDS011;5069;49.306;8.636;2023-11-21T02:49:23;4.90;;;1.43;;
10059;SDS011;5069;49.306;8.636;2023-11-21T02:52:24;2.87;;;1.20;;
10059;SDS011;5069;49.306;8.636;2023-11-21T02:55:27;4.37;;;1.23;;
10059;SDS011;5069;49.306;8.636;2023-11-21T02:58:29;2.97;;;1.07;;
10059;SDS011;5069;49.306;8.636;2023-11-21T03:01:31;2.97;;;1.27;;
10059;SDS011;5069;49.306;8.636;2023-11-21T03:04:33;1.60;;;1.43;;
10059;SDS011;5069;49.306;8.636;2023-11-21T03:07:36;4.23;;;1.23;;
10059;SDS011;5069;49.306;8.636;2023-11-21T03:10:38;3.53;;;1.27;;
10059;SDS011;5069;49.306;8.636;2023-11-21T03:13:40;3.87;;;1.30;;
10059;SDS011;5069;49.306;8.636;2023-11-21T03:16:42;1.47;;;1.10;;
10059;SDS011;5069;49.306;8.636;2023-11-21T03:19:46;4.60;;;1.40;;
10059;SDS011;5069;49.306;8.636;2023-11-21T03:22:49;3.50;;;1.20;;
10059;SDS011;5069;49.306;8.636;2023-11-21T03:25:50;5.97;;;1.27;;
10059;SDS011;5069;49.306;8.636;2023-11-21T03:28:52;4.27;;;1.40;;
10059;SDS011;5069;49.306;8.636;2023-11-21T03:31:54;2.87;;;1.37;;
10059;SDS011;5069;49.306;8.636;2023-11-21T03:34:57;2.23;;;1.60;;
10059;SDS011;5069;49.306;8.636;2023-11-21T03:38:00;2.70;;;1.40;;
10059;SDS011;5069;49.306;8.636;2023-11-21T03:41:04;2.90;;;1.30;;
10059;SDS011;5069;49.306;8.636;2023-11-21T03:44:06;2.53;;;1.20;;
10059;SDS011;5069;49.306;8.636;2023-11-21T03:47:07;2.27;;;1.70;;
10059;SDS011;5069;49.306;8.636;2023-11-21T03:50:09;4.03;;;1.50;;
10059;SDS011;5069;49.306;8.636;2023-11-21T03:53:11;3.20;;;1.47;;
10059;SDS011;5069;49.306;8.636;2023-11-21T03:56:13;3.93;;;1.50;;
10059;SDS011;5069;49.306;8.636;2023-11-21T03:59:15;3.60;;;1.70;;
10059;SDS011;5069;49.306;8.636;2023-11-21T04:02:16;4.47;;;1.73;;
10059;SDS011;5069;49.306;8.636;2023-11-21T04:05:19;8.37;;;1.80;;
10059;SDS011;5069;49.306;8.636;2023-11-21T04:08:22;2.90;;;1.57;;
10059;SDS011;5069;49.306;8.636;2023-11-21T04:11:24;3.40;;;1.60;;
10059;SDS011;5069;49.306;8.636;2023-11-21T04:14:26;4.87;;;2.20;;
10059;SDS011;5069;49.306;8.636;2023-11-21T04:17:28;6.77;;;1.90;;
10059;SDS011;5069;49.306;8.636;2023-11-21T04:20:29;4.73;;;1.70;;
10059;SDS011;5069;49.306;8.636;2023-11-21T04:23:31;2.90;;;1.60;;
10059;SDS011;5069;49.306;8.636;2023-11-21T04:26:33;3.83;;;1.80;;
10059;SDS011;5069;49.306;8.636;2023-11-21T04:29:34;4.67;;;1.93;;
10059;SDS011;5069;49.306;8.636;2023-11-21T04:32:36;3.70;;;1.50;;
10059;SDS011;5069;49.306;8.636;2023-11-21T04:35:37;3.60;;;1.50;;
10059;SDS011;5069;49.306;8.636;2023-11-21T04:38:39;4.80;;;1.70;;
10059;SDS011;5069;49.306;8.636;2023-11-21T04:41:41;3.67;;;1.77;;
10059;SDS011;5069;49.306;8.636;2023-11-21T04:44:44;4.10;;;2.10;;
10059;SDS011;5069;49.306;8.636;2023-11-21T04:47:45;3.87;;;1.67;;
10059;SDS011;5069;49.306;8.636;2023-11-21T04:50:47;3.63;;;1.67;;
10059;SDS011;5069;49.306;8.636;2023-11-21T04:53:48;6.57;;;1.90;;
10059;SDS011;5069;49.306;8.636;2023-11-21T04:56:50;6.60;;;1.97;;
10059;SDS011;5069;49.306;8.636;2023-11-21T04:59:51;4.43;;;2.17;;
10059;SDS011;5069;49.306;8.636;2023-11-21T05:02:53;3.40;;;1.77;;
10059;SDS011;5069;49.306;8.636;2023-11-21T05:05:55;3.67;;;1.80;;
10059;SDS011;5069;49.306;8.636;2023-11-21T05:08:57;4.77;;;1.70;;
10059;SDS011;5069;49.306;8.636;2023-11-21T05:11:58;4.20;;;1.80;;
10059;SDS011;5069;49.306;8.636;2023-11-21T05:15:01;4.10;;;1.67;;
10059;SDS011;5069;49.306;8.636;2023-11-21T05:18:04;3.50;;;1.80;;
10059;SDS011;5069;49.306;8.636;2023-11-21T05:21:06;4.50;;;1.73;;
10059;SDS011;5069;49.306;8.636;2023-11-21T05:24:08;4.17;;;1.57;;
10059;SDS011;5069;49.306;8.636;2023-11-21T05:27:10;3.90;;;1.77;;
10059;SDS011;5069;49.306;8.636;2023-11-21T05:30:12;5.10;;;1.80;;
10059;SDS011;5069;49.306;8.636;2023-11-21T05:33:15;4.17;;;2.03;;
10059;SDS011;5069;49.306;8.636;2023-11-21T05:36:17;2.70;;;1.60;;
10059;SDS011;5069;49.306;8.636;2023-11-21T05:39:18;4.37;;;1.63;;
10059;SDS011;5069;49.306;8.636;2023-11-21T05:42:20;5.53;;;1.90;;
10059;SDS011;5069;49.306;8.636;2023-11-21T05:45:22;2.63;;;1.70;;
10059;SDS011;5069;49.306;8.636;2023-11-21T05:48:23;4.20;;;1.93;;
10059;SDS011;5069;49.306;8.636;2023-11-21T05:51:26;3.57;;;1.87;;
10059;SDS011;5069;49.306;8.636;2023-11-21T05:54:28;4.13;;;1.87;;
10059;SDS011;5069;49.306;8.636;2023-11-21T05:57:29;3.87;;;2.10;;
10059;SDS011;5069;49.306;8.636;2023-11-21T06:00:31;3.47;;;2.00;;
10059;SDS011;5069;49.306;8.636;2023-11-21T06:03:33;3.87;;;1.63;;
10059;SDS011;5069;49.306;8.636;2023-11-21T06:06:35;2.57;;;1.80;;
10059;SDS011;5069;49.306;8.636;2023-11-21T06:09:37;4.93;;;1.90;;
10059;SDS011;5069;49.306;8.636;2023-11-21T06:12:38;6.30;;;2.30;;
10059;SDS011;5069;49.306;8.636;2023-11-21T06:15:41;5.33;;;2.43;;
10059;SDS011;5069;49.306;8.636;2023-11-21T06:18:43;4.20;;;2.20;;
10059;SDS011;5069;49.306;8.636;2023-11-21T06:21:45;3.17;;;2.00;;
10059;SDS011;5069;49.306;8.636;2023-11-21T06:24:48;3.83;;;2.40;;
10059;SDS011;5069;49.306;8.636;2023-11-21T06:27:49;5.10;;;2.50;;
10059;SDS011;5069;49.306;8.636;2023-11-21T06:30:53;3.43;;;2.30;;
10059;SDS011;5069;49.306;8.636;2023-11-21T06:33:54;5.30;;;2.57;;
10059;SDS011;5069;49.306;8.636;2023-11-21T06:36:56;5.70;;;2.73;;
10059;SDS011;5069;49.306;8.636;2023-11-21T06:39:58;6.27;;;2.93;;
10059;SDS011;5069;49.306;8.636;2023-11-21T06:43:01;4.83;;;2.33;;
10059;SDS011;5069;49.306;8.636;2023-11-21T06:46:02;4.27;;;2.63;;
10059;SDS011;5069;49.306;8.636;2023-11-21T06:49:05;3.13;;;2.30;;
10059;SDS011;5069;49.306;8.636;2023-11-21T06:52:07;3.37;;;2.53;;
10059;SDS011;5069;49.306;8.636;2023-11-21T06:55:09;4.73;;;2.57;;
10059;SDS011;5069;49.306;8.636;2023-11-21T06:58:11;3.50;;;2.60;;
10059;SDS011;5069;49.306;8.636;2023-11-21T07:01:12;3.77;;;2.67;;
10059;SDS011;5069;49.306;8.636;2023-11-21T07:04:14;5.67;;;3.10;;
10059;SDS011;5069;49.306;8.636;2023-11-21T07:07:18;3.40;;;2.67;;
10059;SDS011;5069;49.306;8.636;2023-11-21T07:10:20;4.17;;;3.30;;
10059;SDS011;5069;49.306;8.636;2023-11-21T07:13:21;11.47;;;3.20;;
10059;SDS011;5069;49.306;8.636;2023-11-21T07:16:23;4.73;;;3.10;;
10059;SDS011;5069;49.306;8.636;2023-11-21T07:19:25;3.83;;;2.77;;
10059;SDS011;5069;49.306;8.636;2023-11-21T07:22:26;6.00;;;2.97;;
10059;SDS011;5069;49.306;8.636;2023-11-21T07:25:28;3.23;;;2.93;;
10059;SDS011;5069;49.306;8.636;2023-11-21T07:28:29;4.13;;;3.10;;
10059;SDS011;5069;49.306;8.636;2023-11-21T07:31:31;4.93;;;3.83;;
10059;SDS011;5069;49.306;8.636;2023-11-21T07:34:35;6.50;;;3.27;;
10059;SDS011;5069;49.306;8.636;2023-11-21T07:37:37;3.83;;;3.03;;
10059;SDS011;5069;49.306;8.636;2023-11-21T07:40:39;7.70;;;3.40;;
10059;SDS011;5069;49.306;8.636;2023-11-21T07:43:41;4.90;;;3.30;;
10059;SDS011;5069;49.306;8.636;2023-11-21T07:46:43;7.23;;;3.87;;
10059;SDS011;5069;49.306;8.636;2023-11-21T07:49:45;7.13;;;4.10;;
10059;SDS011;5069;49.306;8.636;2023-11-21T07:52:48;5.03;;;4.10;;
10059;SDS011;5069;49.306;8.636;2023-11-21T07:55:51;7.63;;;5.20;;
10059;SDS011;5069;49.306;8.636;2023-11-21T07:58:53;7.17;;;5.87;;
10059;SDS011;5069;49.306;8.636;2023-11-21T08:01:55;9.83;;;5.93;;
10059;SDS011;5069;49.306;8.636;2023-11-21T08:04:56;8.23;;;6.03;;
10059;SDS011;5069;49.306;8.636;2023-11-21T08:07:59;9.83;;;6.57;;
10059;SDS011;5069;49.306;8.636;2023-11-21T08:11:01;8.77;;;6.80;;
10059;SDS011;5069;49.306;8.636;2023-11-21T08:14:03;13.80;;;7.80;;
10059;SDS011;5069;49.306;8.636;2023-11-21T08:17:04;13.03;;;7.83;;
10059;SDS011;5069;49.306;8.636;2023-11-21T08:20:07;12.63;;;8.00;;
10059;SDS011;5069;49.306;8.636;2023-11-21T08:23:12;11.77;;;9.30;;
10059;SDS011;5069;49.306;8.636;2023-11-21T08:26:15;15.10;;;9.07;;
10059;SDS011;5069;49.306;8.636;2023-11-21T08:29:17;13.27;;;9.77;;
10059;SDS011;5069;49.306;8.636;2023-11-21T08:32:19;14.93;;;10.47;;
10059;SDS011;5069;49.306;8.636;2023-11-21T08:35:21;12.63;;;9.77;;
10059;SDS011;5069;49.306;8.636;2023-11-21T08:38:22;13.13;;;9.60;;
10059;SDS011;5069;49.306;8.636;2023-11-21T08:41:24;12.37;;;9.90;;
10059;SDS011;5069;49.306;8.636;2023-11-21T08:44:25;17.10;;;10.00;;
10059;SDS011;5069;49.306;8.636;2023-11-21T08:47:27;11.17;;;9.80;;
10059;SDS011;5069;49.306;8.636;2023-11-21T08:50:29;14.30;;;9.77;;
10059;SDS011;5069;49.306;8.636;2023-11-21T08:53:30;12.87;;;9.43;;
10059;SDS011;5069;49.306;8.636;2023-11-21T08:56:32;12.40;;;9.40;;
10059;SDS011;5069;49.306;8.636;2023-11-21T08:59:33;10.47;;;9.37;;
10059;SDS011;5069;49.306;8.636;2023-11-21T09:02:35;11.33;;;8.90;;
10059;SDS011;5069;49.306;8.636;2023-11-21T09:05:38;12.93;;;8.70;;
10059;SDS011;5069;49.306;8.636;2023-11-21T09:08:40;9.13;;;7.67;;
10059;SDS011;5069;49.306;8.636;2023-11-21T09:11:43;9.60;;;7.53;;
10059;SDS011;5069;49.306;8.636;2023-11-21T09:14:45;10.67;;;7.03;;
10059;SDS011;5069;49.306;8.636;2023-11-21T09:17:47;9.50;;;7.90;;
10059;SDS011;5069;49.306;8.636;2023-11-21T09:20:49;11.33;;;7.33;;
10059;SDS011;5069;49.306;8.636;2023-11-21T09:23:51;7.80;;;6.50;;
10059;SDS011;5069;49.306;8.636;2023-11-21T09:26:52;7.57;;;6.30;;
10059;SDS011;5069;49.306;8.636;2023-11-21T09:29:54;6.80;;;6.07;;
10059;SDS011;5069;49.306;8.636;2023-11-21T09:32:56;6.53;;;5.90;;
10059;SDS011;5069;49.306;8.636;2023-11-21T09:36:00;6.90;;;5.17;;
10059;SDS011;5069;49.306;8.636;2023-11-21T09:39:02;6.40;;;5.23;;
10059;SDS011;5069;49.306;8.636;2023-11-21T09:42:10;6.70;;;5.03;;
10059;SDS011;5069;49.306;8.636;2023-11-21T09:45:21;7.47;;;5.23;;
10059;SDS011;5069;49.306;8.636;2023-11-21T09:48:27;5.30;;;4.67;;
10059;SDS011;5069;49.306;8.636;2023-11-21T09:51:31;4.97;;;4.40;;
10059;SDS011;5069;49.306;8.636;2023-11-21T09:54:34;4.93;;;4.43;;
10059;SDS011;5069;49.306;8.636;2023-11-21T09:57:37;6.23;;;4.20;;
10059;SDS011;5069;49.306;8.636;2023-11-21T10:00:42;4.73;;;4.33;;
10059;SDS011;5069;49.306;8.636;2023-11-21T10:03:45;6.13;;;5.07;;
10059;SDS011;5069;49.306;8.636;2023-11-21T10:06:47;5.47;;;4.20;;
10059;SDS011;5069;49.306;8.636;2023-11-21T10:09:49;4.60;;;4.07;;
10059;SDS011;5069;49.306;8.636;2023-11-21T10:12:53;4.70;;;4.30;;
10059;SDS011;5069;49.306;8.636;2023-11-21T10:15:57;5.03;;;3.97;;
10059;SDS011;5069;49.306;8.636;2023-11-21T10:19:01;9.87;;;3.97;;
10059;SDS011;5069;49.306;8.636;2023-11-21T10:22:11;4.97;;;3.20;;
10059;SDS011;5069;49.306;8.636;2023-11-21T10:25:14;3.70;;;3.10;;
10059;SDS011;5069;49.306;8.636;2023-11-21T10:28:16;3.47;;;2.80;;
10059;SDS011;5069;49.306;8.636;2023-11-21T10:31:17;4.60;;;3.00;;
10059;SDS011;5069;49.306;8.636;2023-11-21T10:34:20;6.27;;;3.20;;
10059;SDS011;5069;49.306;8.636;2023-11-21T10:37:22;3.93;;;2.97;;
10059;SDS011;5069;49.306;8.636;2023-11-21T10:40:27;4.13;;;3.23;;
10059;SDS011;5069;49.306;8.636;2023-11-21T10:43:29;5.77;;;3.90;;
10059;SDS011;5069;49.306;8.636;2023-11-21T10:46:33;4.23;;;3.77;;
10059;SDS011;5069;49.306;8.636;2023-11-21T10:49:35;5.60;;;4.13;;
10059;SDS011;5069;49.306;8.636;2023-11-21T10:52:41;4.80;;;4.30;;
10059;SDS011;5069;49.306;8.636;2023-11-21T10:55:48;4.63;;;4.20;;
10059;SDS011;5069;49.306;8.636;2023-11-21T10:58:50;4.97;;;4.47;;
10059;SDS011;5069;49.306;8.636;2023-11-21T11:01:53;6.87;;;4.87;;
10059;SDS011;5069;49.306;8.636;2023-11-21T11:04:55;5.50;;;4.93;;
10059;SDS011;5069;49.306;8.636;2023-11-21T11:08:00;5.13;;;4.67;;
10059;SDS011;5069;49.306;8.636;2023-11-21T11:11:06;7.10;;;4.60;;
10059;SDS011;5069;49.306;8.636;2023-11-21T11:14:10;7.87;;;5.03;;
10059;SDS011;5069;49.306;8.636;2023-11-21T11:17:13;7.10;;;5.80;;
10059;SDS011;5069;49.306;8.636;2023-11-21T11:20:15;6.17;;;5.57;;
10059;SDS011;5069;49.306;8.636;2023-11-21T11:23:27;9.57;;;6.27;;
10059;SDS011;5069;49.306;8.636;2023-11-21T11:33:53;6.43;;;5.83;;
10059;SDS011;5069;49.306;8.636;2023-11-21T11:37:00;8.20;;;7.37;;
10059;SDS011;5069;49.306;8.636;2023-11-21T11:40:06;9.20;;;7.43;;
10059;SDS011;5069;49.306;8.636;2023-11-21T11:43:08;10.20;;;7.10;;
10059;SDS011;5069;49.306;8.636;2023-11-21T11:46:10;8.87;;;6.77;;
10059;SDS011;5069;49.306;8.636;2023-11-21T11:49:28;8.77;;;6.57;;
10059;SDS011;5069;49.306;8.636;2023-11-21T11:52:36;6.90;;;6.20;;
10059;SDS011;5069;49.306;8.636;2023-11-21T11:55:43;6.00;;;5.40;;
10059;SDS011;5069;49.306;8.636;2023-11-21T11:58:45;6.83;;;5.37;;
10059;SDS011;5069;49.306;8.636;2023-11-21T12:01:48;6.83;;;6.07;;
10059;SDS011;5069;49.306;8.636;2023-11-21T12:04:55;6.60;;;5.47;;
10059;SDS011;5069;49.306;8.636;2023-11-21T12:07:58;7.37;;;5.90;;
10059;SDS011;5069;49.306;8.636;2023-11-21T12:11:03;6.97;;;6.00;;
10059;SDS011;5069;49.306;8.636;2023-11-21T12:14:05;7.13;;;5.20;;
10059;SDS011;5069;49.306;8.636;2023-11-21T12:17:07;6.50;;;5.57;;
10059;SDS011;5069;49.306;8.636;2023-11-21T12:20:11;7.27;;;5.57;;
10059;SDS011;5069;49.306;8.636;2023-11-21T12:23:16;7.20;;;5.30;;
10059;SDS011;5069;49.306;8.636;2023-11-21T12:26:18;6.47;;;5.50;;
10059;SDS011;5069;49.306;8.636;2023-11-21T12:29:19;6.07;;;5.40;;
10059;SDS011;5069;49.306;8.636;2023-11-21T12:32:21;7.30;;;5.23;;
10059;SDS011;5069;49.306;8.636;2023-11-21T12:35:24;5.13;;;4.63;;
10059;SDS011;5069;49.306;8.636;2023-11-21T12:38:33;5.57;;;4.97;;
10059;SDS011;5069;49.306;8.636;2023-11-21T12:41:38;5.47;;;4.93;;
10059;SDS011;5069;49.306;8.636;2023-11-21T12:44:40;7.33;;;5.13;;
10059;SDS011;5069;49.306;8.636;2023-11-21T12:47:43;5.73;;;4.60;;
10059;SDS011;5069;49.306;8.636;2023-11-21T12:50:49;6.30;;;5.70;;
10059;SDS011;5069;49.306;8.636;2023-11-21T12:53:54;6.60;;;5.40;;
10059;SDS011;5069;49.306;8.636;2023-11-21T12:56:59;6.60;;;5.20;;
10059;SDS011;5069;49.306;8.636;2023-11-21T13:00:00;5.17;;;4.50;;
10059;SDS011;5069;49.306;8.636;2023-11-21T13:03:12;7.07;;;4.80;;
10059;SDS011;5069;49.306;8.636;2023-11-21T13:06:18;5.40;;;4.10;;
10059;SDS011;5069;49.306;8.636;2023-11-21T13:09:21;5.37;;;4.07;;
10059;SDS011;5069;49.306;8.636;2023-11-21T13:12:23;6.70;;;4.70;;
10059;SDS011;5069;49.306;8.636;2023-11-21T13:15:29;5.93;;;4.30;;
10059;SDS011;5069;49.306;8.636;2023-11-21T13:18:32;4.50;;;3.80;;
10059;SDS011;5069;49.306;8.636;2023-11-21T13:21:34;6.23;;;4.40;;
10059;SDS011;5069;49.306;8.636;2023-11-21T13:24:36;5.23;;;4.47;;
10059;SDS011;5069;49.306;8.636;2023-11-21T13:27:38;5.57;;;4.20;;
10059;SDS011;5069;49.306;8.636;2023-11-21T13:30:39;4.23;;;3.80;;
10059;SDS011;5069;49.306;8.636;2023-11-21T13:33:41;5.67;;;3.77;;
10059;SDS011;5069;49.306;8.636;2023-11-21T13:36:45;4.33;;;3.50;;
10059;SDS011;5069;49.306;8.636;2023-11-21T13:39:46;5.53;;;4.00;;
10059;SDS011;5069;49.306;8.636;2023-11-21T13:42:55;4.77;;;3.93;;
10059;SDS011;5069;49.306;8.636;2023-11-21T13:46:00;7.07;;;3.80;;
10059;SDS011;5069;49.306;8.636;2023-11-21T13:49:14;6.60;;;3.90;;
10059;SDS011;5069;49.306;8.636;2023-11-21T13:52:17;4.53;;;3.23;;
10059;SDS011;5069;49.306;8.636;2023-11-21T13:55:21;4.40;;;3.30;;
10059;SDS011;5069;49.306;8.636;2023-11-21T13:58:26;5.40;;;3.13;;
10059;SDS011;5069;49.306;8.636;2023-11-21T14:01:42;3.80;;;3.13;;
10059;SDS011;5069;49.306;8.636;2023-11-21T14:05:02;5.73;;;3.60;;
10059;SDS011;5069;49.306;8.636;2023-11-21T14:08:10;4.87;;;3.30;;
10059;SDS011;5069;49.306;8.636;2023-11-21T14:11:13;5.90;;;3.43;;
10059;SDS011;5069;49.306;8.636;2023-11-21T14:14:22;3.57;;;2.87;;
10059;SDS011;5069;49.306;8.636;2023-11-21T14:17:29;4.23;;;2.83;;
10059;SDS011;5069;49.306;8.636;2023-11-21T14:20:31;4.03;;;2.47;;
10059;SDS011;5069;49.306;8.636;2023-11-21T14:23:34;5.30;;;2.90;;
10059;SDS011;5069;49.306;8.636;2023-11-21T14:26:37;4.17;;;2.70;;
10059;SDS011;5069;49.306;8.636;2023-11-21T14:29:38;4.20;;;3.00;;
10059;SDS011;5069;49.306;8.636;2023-11-21T14:32:44;3.50;;;2.60;;
10059;SDS011;5069;49.306;8.636;2023-11-21T14:35:46;3.07;;;2.60;;
10059;SDS011;5069;49.306;8.636;2023-11-21T14:38:48;6.73;;;2.70;;
10059;SDS011;5069;49.306;8.636;2023-11-21T14:41:50;5.13;;;2.97;;
10059;SDS011;5069;49.306;8.636;2023-11-21T14:44:51;7.23;;;2.67;;
10059;SDS011;5069;49.306;8.636;2023-11-21T14:47:53;6.10;;;3.23;;
10059;SDS011;5069;49.306;8.636;2023-11-21T14:51:06;6.67;;;4.00;;
10059;SDS011;5069;49.306;8.636;2023-11-21T14:54:33;6.30;;;3.87;;
10059;SDS011;5069;49.306;8.636;2023-11-21T14:57:41;7.90;;;4.10;;
10059;SDS011;5069;49.306;8.636;2023-11-21T15:00:45;7.67;;;4.33;;
10059;SDS011;5069;49.306;8.636;2023-11-21T15:03:47;7.80;;;4.17;;
10059;SDS011;5069;49.306;8.636;2023-11-21T15:06:51;12.87;;;5.13;;
10059;SDS011;5069;49.306;8.636;2023-11-21T15:09:54;8.50;;;3.00;;
10059;SDS011;5069;49.306;8.636;2023-11-21T15:12:56;10.23;;;3.30;;
10059;SDS011;5069;49.306;8.636;2023-11-21T15:15:59;4.40;;;2.83;;
10059;SDS011;5069;49.306;8.636;2023-11-21T15:19:08;6.50;;;3.80;;
10059;SDS011;5069;49.306;8.636;2023-11-21T15:22:10;8.13;;;3.30;;
10059;SDS011;5069;49.306;8.636;2023-11-21T15:25:16;5.60;;;3.00;;
10059;SDS011;5069;49.306;8.636;2023-11-21T15:28:18;8.03;;;2.93;;
10059;SDS011;5069;49.306;8.636;2023-11-21T15:31:20;4.47;;;3.13;;
10059;SDS011;5069;49.306;8.636;2023-11-21T15:34:26;8.90;;;3.40;;
10059;SDS011;5069;49.306;8.636;2023-11-21T15:37:29;5.80;;;3.10;;
10059;SDS011;5069;49.306;8.636;2023-11-21T15:40:31;6.27;;;3.30;;
10059;SDS011;5069;49.306;8.636;2023-11-21T15:43:33;7.53;;;3.57;;
10059;SDS011;5069;49.306;8.636;2023-11-21T15:46:34;7.13;;;3.60;;
10059;SDS011;5069;49.306;8.636;2023-11-21T15:49:37;10.30;;;6.63;;
10059;SDS011;5069;49.306;8.636;2023-11-21T15:52:39;13.63;;;8.03;;
10059;SDS011;5069;49.306;8.636;2023-11-21T15:55:58;14.27;;;10.37;;
10059;SDS011;5069;49.306;8.636;2023-11-21T15:59:00;10.17;;;6.60;;
10059;SDS011;5069;49.306;8.636;2023-11-21T16:02:01;7.40;;;4.67;;
10059;SDS011;5069;49.306;8.636;2023-11-21T16:05:06;8.97;;;4.70;;
10059;SDS011;5069;49.306;8.636;2023-11-21T16:08:08;7.90;;;4.67;;
10059;SDS011;5069;49.306;8.636;2023-11-21T16:11:10;5.43;;;4.17;;
10059;SDS011;5069;49.306;8.636;2023-11-21T16:14:11;8.43;;;3.47;;
10059;SDS011;5069;49.306;8.636;2023-11-21T16:17:13;6.53;;;3.37;;
10059;SDS011;5069;49.306;8.636;2023-11-21T16:20:15;10.93;;;4.17;;
10059;SDS011;5069;49.306;8.636;2023-11-21T16:23:17;5.90;;;3.53;;
10059;SDS011;5069;49.306;8.636;2023-11-21T16:26:19;6.87;;;4.27;;
10059;SDS011;5069;49.306;8.636;2023-11-21T16:29:20;7.67;;;3.83;;
10059;SDS011;5069;49.306;8.636;2023-11-21T16:32:21;9.07;;;4.17;;
10059;SDS011;5069;49.306;8.636;2023-11-21T16:35:23;5.80;;;3.90;;
10059;SDS011;5069;49.306;8.636;2023-11-21T16:38:25;8.40;;;3.77;;
10059;SDS011;5069;49.306;8.636;2023-11-21T16:41:26;8.70;;;3.73;;
10059;SDS011;5069;49.306;8.636;2023-11-21T16:44:28;15.13;;;4.60;;
10059;SDS011;5069;49.306;8.636;2023-11-21T16:47:30;7.43;;;4.87;;
10059;SDS011;5069;49.306;8.636;2023-11-21T16:50:33;12.90;;;4.40;;
10059;SDS011;5069;49.306;8.636;2023-11-21T16:53:35;7.27;;;3.67;;
10059;SDS011;5069;49.306;8.636;2023-11-21T16:56:37;8.93;;;4.30;;
10059;SDS011;5069;49.306;8.636;2023-11-21T16:59:38;6.90;;;4.10;;
10059;SDS011;5069;49.306;8.636;2023-11-21T17:02:40;11.17;;;5.60;;
10059;SDS011;5069;49.306;8.636;2023-11-21T17:05:42;7.13;;;4.80;;
10059;SDS011;5069;49.306;8.636;2023-11-21T17:08:44;8.93;;;4.97;;
10059;SDS011;5069;49.306;8.636;2023-11-21T17:11:48;10.73;;;5.30;;
10059;SDS011;5069;49.306;8.636;2023-11-21T17:14:50;12.03;;;5.70;;
10059;SDS011;5069;49.306;8.636;2023-11-21T17:17:52;10.40;;;5.33;;
10059;SDS011;5069;49.306;8.636;2023-11-21T17:20:56;7.83;;;5.30;;
10059;SDS011;5069;49.306;8.636;2023-11-21T17:23:58;11.50;;;6.33;;
10059;SDS011;5069;49.306;8.636;2023-11-21T17:26:59;10.13;;;6.03;;
10059;SDS011;5069;49.306;8.636;2023-11-21T17:30:01;10.57;;;6.07;;
10059;SDS011;5069;49.306;8.636;2023-11-21T17:33:03;10.83;;;5.90;;
10059;SDS011;5069;49.306;8.636;2023-11-21T17:36:04;9.07;;;5.80;;
10059;SDS011;5069;49.306;8.636;2023-11-21T17:39:10;8.27;;;5.57;;
10059;SDS011;5069;49.306;8.636;2023-11-21T17:42:12;13.43;;;5.73;;
10059;SDS011;5069;49.306;8.636;2023-11-21T17:45:14;10.70;;;5.03;;
10059;SDS011;5069;49.306;8.636;2023-11-21T17:48:16;10.30;;;5.80;;
10059;SDS011;5069;49.306;8.636;2023-11-21T17:51:18;9.60;;;5.50;;
10059;SDS011;5069;49.306;8.636;2023-11-21T17:54:19;11.20;;;5.70;;
10059;SDS011;5069;49.306;8.636;2023-11-21T17:57:21;9.77;;;5.83;;
10059;SDS011;5069;49.306;8.636;2023-11-21T18:00:22;9.67;;;5.60;;
10059;SDS011;5069;49.306;8.636;2023-11-21T18:03:27;11.17;;;5.50;;
10059;SDS011;5069;49.306;8.636;2023-11-21T18:06:28;10.20;;;5.37;;
10059;SDS011;5069;49.306;8.636;2023-11-21T18:09:30;9.43;;;4.47;;
10059;SDS011;5069;49.306;8.636;2023-11-21T18:12:32;8.17;;;4.47;;
10059;SDS011;5069;49.306;8.636;2023-11-21T18:15:33;8.00;;;4.17;;
10059;SDS011;5069;49.306;8.636;2023-11-21T18:18:35;9.63;;;4.17;;
10059;SDS011;5069;49.306;8.636;2023-11-21T18:21:40;5.37;;;4.30;;
10059;SDS011;5069;49.306;8.636;2023-11-21T18:24:42;6.83;;;3.70;;
10059;SDS011;5069;49.306;8.636;2023-11-21T18:27:44;5.43;;;3.87;;
10059;SDS011;5069;49.306;8.636;2023-11-21T18:30:45;10.10;;;4.47;;
10059;SDS011;5069;49.306;8.636;2023-11-21T18:33:47;7.37;;;4.10;;
10059;SDS011;5069;49.306;8.636;2023-11-21T18:36:49;8.57;;;4.63;;
10059;SDS011;5069;49.306;8.636;2023-11-21T18:39:51;6.67;;;4.73;;
10059;SDS011;5069;49.306;8.636;2023-11-21T18:42:54;14.13;;;6.93;;
10059;SDS011;5069;49.306;8.636;2023-11-21T18:45:55;8.17;;;5.10;;